createdAt,value
2023-02-25T00:01:51.183Z,5.24
2023-02-25T00:04:30.742Z,5.56
2023-02-25T00:06:58.845Z,5.40
2023-02-25T00:09:27.160Z,5.36
2023-02-25T00:11:55.333Z,5.38
2023-02-25T00:14:23.588Z,5.41
2023-02-25T00:16:55.995Z,5.08
2023-02-25T00:19:24.848Z,4.92
2023-02-25T00:21:54.522Z,4.62
2023-02-25T00:24:22.428Z,5.01
2023-02-25T00:26:50.707Z,5.45
2023-02-25T00:29:18.831Z,5.23
2023-02-25T00:31:47.249Z,5.12
2023-02-25T00:34:17.841Z,5.40
2023-02-25T00:36:45.912Z,5.26
2023-02-25T00:39:15.703Z,5.14
2023-02-25T00:41:43.974Z,5.53
2023-02-25T00:44:13.179Z,5.26
2023-02-25T00:46:41.488Z,5.64
2023-02-25T00:49:10.660Z,5.59
2023-02-25T00:51:39.824Z,5.43
2023-02-25T00:54:08.068Z,5.43
2023-02-25T00:56:37.509Z,4.92
2023-02-25T00:59:05.699Z,5.22
2023-02-25T01:01:34.954Z,5.42
2023-02-25T01:04:03.306Z,5.16
2023-02-25T01:06:34.020Z,5.63
2023-02-25T01:09:02.281Z,5.21
2023-02-25T01:11:32.820Z,5.08
2023-02-25T01:14:04.424Z,5.33
2023-02-25T01:16:34.671Z,5.26
2023-02-25T01:19:05.607Z,5.57
2023-02-25T01:21:36.786Z,5.51
2023-02-25T01:24:07.719Z,5.37
2023-02-25T01:26:37.727Z,5.30
2023-02-25T01:29:10.037Z,5.12
2023-02-25T01:31:38.482Z,4.97
2023-02-25T01:34:09.162Z,4.99
2023-02-25T01:36:38.115Z,5.22
2023-02-25T01:39:08.358Z,5.36
2023-02-25T01:41:38.801Z,5.25
2023-02-25T01:44:12.953Z,4.96
2023-02-25T01:46:42.600Z,5.03
2023-02-25T01:49:16.298Z,5.03
2023-02-25T01:51:47.224Z,5.23
2023-02-25T01:54:16.813Z,5.22
2023-02-25T01:56:50.031Z,4.92
2023-02-25T01:59:22.255Z,5.21
2023-02-25T02:01:50.946Z,5.16
2023-02-25T02:04:23.264Z,4.77
2023-02-25T02:06:52.866Z,4.88
2023-02-25T02:09:23.961Z,5.33
2023-02-25T02:11:52.486Z,4.88
2023-02-25T02:14:27.789Z,5.23
2023-02-25T02:17:27.309Z,4.85
2023-02-25T02:20:11.502Z,5.62
2023-02-25T02:22:51.157Z,5.07
2023-02-25T02:25:53.576Z,5.14
2023-02-25T02:28:55.168Z,4.77
2023-02-25T02:31:37.544Z,5.10
2023-02-25T02:34:16.705Z,5.52
2023-02-25T02:36:57.460Z,5.03
2023-02-25T02:39:33.039Z,5.23
2023-02-25T02:42:04.625Z,5.32
2023-02-25T02:44:42.111Z,5.08
2023-02-25T02:47:18.241Z,4.67
2023-02-25T02:49:51.709Z,4.83
2023-02-25T02:52:25.876Z,4.85
2023-02-25T02:54:59.177Z,4.61
2023-02-25T02:57:28.918Z,4.89
2023-02-25T03:00:01.684Z,5.13
2023-02-25T03:02:36.745Z,4.56
2023-02-25T03:05:09.760Z,5.37
2023-02-25T03:07:44.531Z,5.15
2023-02-25T03:10:17.168Z,4.57
2023-02-25T03:22:13.596Z,5.16
2023-02-25T03:28:58.008Z,4.67
2023-02-25T03:31:42.540Z,4.63
2023-02-25T03:34:19.154Z,4.97
2023-02-25T03:36:55.280Z,4.54
2023-02-25T03:44:00.269Z,4.75
2023-02-25T03:46:32.618Z,4.69
2023-02-25T03:58:45.332Z,4.58
2023-02-25T04:01:17.345Z,4.66
2023-02-25T04:03:46.757Z,4.87
2023-02-25T04:06:16.534Z,4.69
2023-02-25T04:08:45.499Z,4.25
2023-02-25T04:20:43.235Z,4.32
2023-02-25T04:23:14.432Z,4.15
2023-02-25T04:25:43.406Z,4.32
2023-02-25T04:28:12.274Z,4.18
2023-02-25T04:30:40.831Z,4.36
2023-02-25T04:37:54.421Z,4.67
2023-02-25T04:40:24.232Z,4.60
2023-02-25T04:42:53.075Z,4.38
2023-02-25T05:07:11.511Z,5.24
2023-02-25T05:09:41.348Z,5.34
2023-02-25T05:12:09.597Z,4.99
2023-02-25T05:14:38.915Z,5.26
2023-02-25T05:17:07.428Z,4.75
2023-02-25T05:19:36.086Z,4.70
2023-02-25T05:31:30.442Z,5.03
2023-02-25T05:33:59.516Z,4.61
2023-02-25T05:36:28.610Z,4.38
2023-02-25T05:43:29.789Z,4.26
2023-02-25T05:46:00.045Z,4.38
2023-02-25T05:48:31.692Z,4.35
2023-02-25T05:51:05.275Z,4.53
2023-02-25T05:53:33.906Z,4.71
2023-02-25T06:18:58.172Z,4.32
2023-02-25T06:21:27.315Z,4.38
2023-02-25T06:28:46.203Z,4.44
2023-02-25T06:40:36.198Z,4.62
2023-02-25T06:52:46.980Z,4.89
2023-02-25T06:55:15.852Z,4.61
2023-02-25T06:57:44.321Z,4.79
2023-02-25T07:04:44.188Z,5.11
2023-02-25T07:07:13.237Z,4.35
2023-02-25T07:19:07.164Z,4.36
2023-02-25T07:21:36.145Z,4.98
2023-02-25T07:24:05.256Z,4.76
2023-02-25T07:31:14.921Z,4.81
2023-02-25T07:33:43.529Z,4.27
2023-02-25T07:45:38.476Z,4.84
2023-02-25T07:52:56.487Z,4.79
2023-02-25T08:14:23.099Z,5.02
2023-02-25T08:16:53.475Z,5.15
2023-02-25T08:21:22.174Z,4.97
2023-02-25T08:23:52.112Z,5.55
2023-02-25T08:26:22.646Z,4.88
2023-02-25T08:33:49.818Z,4.78
2023-02-25T08:36:20.986Z,4.76
2023-02-25T08:38:50.284Z,8.48
2023-02-25T08:41:19.554Z,8.93
2023-02-25T08:58:31.559Z,8.35
2023-02-25T09:01:02.050Z,7.71
2023-02-25T09:03:30.730Z,8.15
2023-02-25T09:15:18.814Z,7.79
2023-02-25T09:17:53.264Z,8.50
2023-02-25T09:20:22.035Z,8.59
2023-02-25T09:36:41.120Z,14.17
2023-02-25T10:18:29.541Z,12.51
2023-02-25T10:21:13.773Z,13.75
2023-02-25T10:28:37.569Z,12.60
2023-02-25T10:31:10.297Z,12.19
2023-02-25T11:08:34.777Z,11.83
2023-02-25T11:11:23.024Z,12.10
2023-02-25T12:45:13.599Z,10.78
2023-02-25T13:16:15.019Z,9.94
2023-02-25T13:18:51.554Z,9.90
2023-02-25T13:40:21.004Z,11.33
2023-02-25T13:53:19.353Z,9.63
2023-02-25T13:56:24.354Z,9.53
2023-02-25T14:14:34.854Z,-145.60
2023-02-25T15:27:25.659Z,-145.60
2023-02-25T15:31:28.710Z,-145.60
2023-02-25T15:51:56.881Z,-145.60
2023-02-25T16:01:39.917Z,-145.60
2023-02-25T16:11:08.236Z,-145.60
2023-02-25T16:14:37.839Z,-145.60
2023-02-25T16:18:15.574Z,-145.60
2023-02-25T16:21:47.316Z,-145.60
2023-02-25T16:31:23.202Z,-145.60
2023-02-25T16:41:16.638Z,-145.60
2023-02-25T17:31:33.990Z,-145.60
2023-02-25T17:36:44.540Z,-145.60
2023-02-25T17:47:35.917Z,-145.60
2023-02-25T17:51:13.975Z,-145.60
2023-02-25T18:00:33.520Z,-145.60
2023-02-25T18:04:13.079Z,-145.60
2023-02-25T18:18:24.212Z,-145.60
2023-02-25T18:33:28.493Z,-145.60
2023-02-25T18:36:55.723Z,-145.60
2023-02-25T18:40:26.988Z,-145.60
2023-02-25T20:31:38.934Z,-145.60
2023-02-25T20:35:06.466Z,-145.60
2023-02-25T20:38:39.758Z,-145.60
2023-02-25T20:42:08.321Z,-145.60
2023-02-25T20:45:36.025Z,-145.60
2023-02-25T20:49:05.170Z,-145.60
2023-02-25T20:52:32.612Z,-145.60
2023-02-25T20:55:59.393Z,-145.60
2023-02-25T20:59:26.192Z,-145.60
2023-02-25T21:02:52.877Z,-145.60
2023-02-25T21:06:23.015Z,-145.60
2023-02-25T21:09:49.977Z,-145.60
2023-02-25T21:13:17.354Z,-145.60
2023-02-25T21:22:09.623Z,-145.60
2023-02-25T21:36:23.928Z,-145.60
2023-02-25T21:39:51.738Z,-145.60
2023-02-25T21:43:19.249Z,-145.60
2023-02-25T21:57:40.596Z,-145.60
2023-02-25T22:01:15.630Z,-145.60
2023-02-25T22:04:43.092Z,-145.60
2023-02-25T22:08:10.346Z,-145.60
2023-02-25T22:11:38.676Z,-145.60
2023-02-25T22:15:08.868Z,-145.60
2023-02-25T22:18:37.095Z,-145.60
2023-02-25T22:22:08.792Z,-145.60
2023-02-25T22:25:35.669Z,-145.60
2023-02-25T22:57:34.854Z,-145.60
2023-02-25T23:01:08.340Z,-145.60
2023-02-25T23:04:35.570Z,-145.60
2023-02-25T23:08:02.871Z,-145.60
2023-02-25T23:11:31.617Z,-145.60
2023-02-25T23:22:02.800Z,-145.60
2023-02-25T23:26:44.674Z,-145.60
2023-02-25T23:30:14.793Z,-145.60
2023-02-25T23:45:38.839Z,-145.60
2023-02-25T23:49:08.923Z,-145.60
2023-02-25T23:52:36.378Z,-145.60
2023-02-25T23:56:07.146Z,-145.60
2023-02-25T23:59:35.055Z,-145.60
